Airfield :
LOGIN :

Register | Disclaimer

   EN    FR    IT 

 










Legend :    VFR   Marginal VFR   IFR   Intensive IFR   Very Intensive IFR
Visi :
Ceiling :
>= 8 km
>= 3000ft
5 to 8 km
1000 to 3000 ft
1500m to 5 km
500 to 1000 ft
800 to 1500m
200 to 500 ft
< 800m
< 200 ft
Symbols :   Thunderstorms  Fog  Heavy snow  Heavy precipitations  Wind > 20 kt
SIGMETs :     Misc.  Thunderstorms  Icing  Turbulence  Mountain Waves  Volcanic Ashes







- Airport Elevation : 7 ft
- IATA code : ESH
- Download approach charts


EGKA - Shoreham

CURRENT METAR :
  • 181820Z 36008KT CAVOK 01/M00 Q1032

EXPIRED METARs :
  • 181750Z 36006KT CAVOK 01/M00 Q1032
  • 181720Z 35005KT CAVOK 03/02 Q1032
  • 181650Z 34004KT CAVOK 04/02 Q1031
  • 181620Z 35003KT CAVOK 04/01 Q1031
  • 181550Z 32003KT CAVOK 05/02 Q1030

TAF TAF EGKA
Valid from the 18 at 18:00 until the 18 at 20:00 UTC


181704Z 1818/1820 30005KT CAVOK
BECMG 1818/1820 3000 BR
PROB30 1819/1820 0300 FG VV///
ATIS : +44 1273 467 372
No reported NOTAMs for that airfield.



MET'MAP, your aeronautical weather chart ! - Copyright ORBIFLY December 2007 - Disclaimer

ORBIFLY MET'MAP TEAM :

Programming & Development : Alexandra Zaïnal
Concept & Development : Baudouin d'Aumeries
Co-Development & Prog : Marc-Olivier Méhu
Technical & hardware support : Manuel Goepfert

Contact : metmap@orbifly.com




SOURCES & CREDITS :

   NOAA